sensor_id;sensor_type;location;lat;lon;timestamp;temperature;humidity
78289;DHT22;67539;48.752;12.922;2023-02-27T00:00:58;-0.20;91.90
78289;DHT22;67539;48.752;12.922;2023-02-27T00:03:27;-0.30;91.80
78289;DHT22;67539;48.752;12.922;2023-02-27T00:05:56;-0.30;91.80
78289;DHT22;67539;48.752;12.922;2023-02-27T00:08:25;-0.30;91.70
78289;DHT22;67539;48.752;12.922;2023-02-27T00:10:53;-0.30;91.80
78289;DHT22;67539;48.752;12.922;2023-02-27T00:13:23;-0.20;92.00
78289;DHT22;67539;48.752;12.922;2023-02-27T00:15:51;-0.20;91.80
78289;DHT22;67539;48.752;12.922;2023-02-27T00:18:22;-0.20;91.40
78289;DHT22;67539;48.752;12.922;2023-02-27T00:20:51;-0.20;91.40
78289;DHT22;67539;48.752;12.922;2023-02-27T00:23:19;-0.30;91.50
78289;DHT22;67539;48.752;12.922;2023-02-27T00:25:47;-0.20;91.20
78289;DHT22;67539;48.752;12.922;2023-02-27T00:28:17;-0.20;91.40
78289;DHT22;67539;48.752;12.922;2023-02-27T00:30:46;-0.20;91.20
78289;DHT22;67539;48.752;12.922;2023-02-27T00:33:15;-0.20;91.20
78289;DHT22;67539;48.752;12.922;2023-02-27T00:35:43;-0.20;91.40
78289;DHT22;67539;48.752;12.922;2023-02-27T00:38:11;-0.20;91.40
78289;DHT22;67539;48.752;12.922;2023-02-27T00:40:40;-0.20;91.50
78289;DHT22;67539;48.752;12.922;2023-02-27T00:43:08;-0.10;91.60
78289;DHT22;67539;48.752;12.922;2023-02-27T00:45:36;-0.10;91.40
78289;DHT22;67539;48.752;12.922;2023-02-27T00:48:06;-0.10;91.40
78289;DHT22;67539;48.752;12.922;2023-02-27T00:50:34;-0.10;91.60
78289;DHT22;67539;48.752;12.922;2023-02-27T00:53:02;0.00;91.50
78289;DHT22;67539;48.752;12.922;2023-02-27T00:55:31;0.00;91.10
78289;DHT22;67539;48.752;12.922;2023-02-27T00:57:59;0.00;91.00
78289;DHT22;67539;48.752;12.922;2023-02-27T01:00:27;0.10;90.70
78289;DHT22;67539;48.752;12.922;2023-02-27T01:02:56;0.10;90.50
78289;DHT22;67539;48.752;12.922;2023-02-27T01:05:26;0.10;90.30
78289;DHT22;67539;48.752;12.922;2023-02-27T01:07:57;0.10;90.40
78289;DHT22;67539;48.752;12.922;2023-02-27T01:10:25;0.10;90.50
78289;DHT22;67539;48.752;12.922;2023-02-27T01:12:54;0.10;90.50
78289;DHT22;67539;48.752;12.922;2023-02-27T01:15:22;0.10;90.80
78289;DHT22;67539;48.752;12.922;2023-02-27T01:17:50;0.20;91.00
78289;DHT22;67539;48.752;12.922;2023-02-27T01:20:19;0.20;91.10
78289;DHT22;67539;48.752;12.922;2023-02-27T01:22:49;0.20;90.70
78289;DHT22;67539;48.752;12.922;2023-02-27T01:25:18;0.20;90.70
78289;DHT22;67539;48.752;12.922;2023-02-27T01:27:46;0.20;90.50
78289;DHT22;67539;48.752;12.922;2023-02-27T01:30:15;0.20;90.50
78289;DHT22;67539;48.752;12.922;2023-02-27T01:32:44;0.20;90.40
78289;DHT22;67539;48.752;12.922;2023-02-27T01:35:12;0.20;90.50
78289;DHT22;67539;48.752;12.922;2023-02-27T01:37:40;0.20;90.40
78289;DHT22;67539;48.752;12.922;2023-02-27T01:40:12;0.20;90.00
78289;DHT22;67539;48.752;12.922;2023-02-27T01:42:41;0.30;90.00
78289;DHT22;67539;48.752;12.922;2023-02-27T01:45:24;0.30;89.90
78289;DHT22;67539;48.752;12.922;2023-02-27T01:47:59;0.30;90.00
78289;DHT22;67539;48.752;12.922;2023-02-27T01:50:33;0.30;90.30
78289;DHT22;67539;48.752;12.922;2023-02-27T01:53:04;0.30;90.30
78289;DHT22;67539;48.752;12.922;2023-02-27T01:55:37;0.40;90.00
78289;DHT22;67539;48.752;12.922;2023-02-27T01:58:09;0.40;90.30
78289;DHT22;67539;48.752;12.922;2023-02-27T02:00:38;0.40;90.30
78289;DHT22;67539;48.752;12.922;2023-02-27T02:03:14;0.40;89.60
78289;DHT22;67539;48.752;12.922;2023-02-27T02:05:44;0.40;90.00
78289;DHT22;67539;48.752;12.922;2023-02-27T02:08:17;0.40;90.00
78289;DHT22;67539;48.752;12.922;2023-02-27T02:10:49;0.40;89.90
78289;DHT22;67539;48.752;12.922;2023-02-27T02:13:20;0.40;89.60
78289;DHT22;67539;48.752;12.922;2023-02-27T02:15:57;0.40;90.30
78289;DHT22;67539;48.752;12.922;2023-02-27T02:18:34;0.40;90.10
78289;DHT22;67539;48.752;12.922;2023-02-27T02:24:46;0.40;90.70
78289;DHT22;67539;48.752;12.922;2023-02-27T02:27:35;0.40;90.70
78289;DHT22;67539;48.752;12.922;2023-02-27T02:33:59;0.40;90.70
78289;DHT22;67539;48.752;12.922;2023-02-27T02:40:05;0.40;90.70
78289;DHT22;67539;48.752;12.922;2023-02-27T02:42:46;0.50;90.50
78289;DHT22;67539;48.752;12.922;2023-02-27T02:45:25;0.50;90.50
78289;DHT22;67539;48.752;12.922;2023-02-27T02:48:05;0.50;90.70
78289;DHT22;67539;48.752;12.922;2023-02-27T02:50:38;0.50;91.00
78289;DHT22;67539;48.752;12.922;2023-02-27T02:53:13;0.50;90.60
78289;DHT22;67539;48.752;12.922;2023-02-27T02:55:47;0.50;90.50
78289;DHT22;67539;48.752;12.922;2023-02-27T02:58:24;0.40;90.80
78289;DHT22;67539;48.752;12.922;2023-02-27T03:00:59;0.40;91.30
78289;DHT22;67539;48.752;12.922;2023-02-27T03:03:31;0.30;91.60
78289;DHT22;67539;48.752;12.922;2023-02-27T03:06:04;0.30;91.70
78289;DHT22;67539;48.752;12.922;2023-02-27T03:08:36;0.30;92.00
78289;DHT22;67539;48.752;12.922;2023-02-27T03:11:07;0.30;92.20
78289;DHT22;67539;48.752;12.922;2023-02-27T03:13:39;0.30;92.50
78289;DHT22;67539;48.752;12.922;2023-02-27T03:16:13;0.30;92.60
78289;DHT22;67539;48.752;12.922;2023-02-27T03:18:52;0.30;92.70
78289;DHT22;67539;48.752;12.922;2023-02-27T03:21:26;0.30;92.50
78289;DHT22;67539;48.752;12.922;2023-02-27T03:23:59;0.30;92.30
78289;DHT22;67539;48.752;12.922;2023-02-27T03:26:34;0.40;92.20
78289;DHT22;67539;48.752;12.922;2023-02-27T03:29:07;0.40;92.20
78289;DHT22;67539;48.752;12.922;2023-02-27T03:31:40;0.40;91.80
78289;DHT22;67539;48.752;12.922;2023-02-27T03:34:13;0.40;91.70
78289;DHT22;67539;48.752;12.922;2023-02-27T03:36:48;0.40;91.60
78289;DHT22;67539;48.752;12.922;2023-02-27T03:39:24;0.40;91.20
78289;DHT22;67539;48.752;12.922;2023-02-27T03:42:01;0.40;91.00
78289;DHT22;67539;48.752;12.922;2023-02-27T03:45:07;0.40;90.80
78289;DHT22;67539;48.752;12.922;2023-02-27T03:47:38;0.40;90.40
78289;DHT22;67539;48.752;12.922;2023-02-27T03:50:08;0.40;90.40
78289;DHT22;67539;48.752;12.922;2023-02-27T03:52:37;0.30;90.80
78289;DHT22;67539;48.752;12.922;2023-02-27T03:55:10;0.30;90.90
78289;DHT22;67539;48.752;12.922;2023-02-27T03:57:41;0.30;91.00
78289;DHT22;67539;48.752;12.922;2023-02-27T04:00:14;0.30;91.20
78289;DHT22;67539;48.752;12.922;2023-02-27T04:02:45;0.30;91.50
78289;DHT22;67539;48.752;12.922;2023-02-27T04:05:17;0.20;91.70
78289;DHT22;67539;48.752;12.922;2023-02-27T04:08:01;0.30;91.70
78289;DHT22;67539;48.752;12.922;2023-02-27T04:10:51;0.20;91.90
78289;DHT22;67539;48.752;12.922;2023-02-27T04:13:45;0.30;92.20
78289;DHT22;67539;48.752;12.922;2023-02-27T04:16:48;0.30;92.00
78289;DHT22;67539;48.752;12.922;2023-02-27T04:19:31;0.30;92.00
78289;DHT22;67539;48.752;12.922;2023-02-27T04:22:12;0.20;92.00
78289;DHT22;67539;48.752;12.922;2023-02-27T04:24:53;0.20;92.20
78289;DHT22;67539;48.752;12.922;2023-02-27T04:27:28;0.20;92.30
78289;DHT22;67539;48.752;12.922;2023-02-27T04:30:10;0.10;92.30
78289;DHT22;67539;48.752;12.922;2023-02-27T04:32:45;0.10;92.60
78289;DHT22;67539;48.752;12.922;2023-02-27T04:35:19;0.00;92.60
78289;DHT22;67539;48.752;12.922;2023-02-27T04:37:53;-0.10;93.00
78289;DHT22;67539;48.752;12.922;2023-02-27T04:40:27;-0.10;93.20
78289;DHT22;67539;48.752;12.922;2023-02-27T04:42:57;-0.20;93.40
78289;DHT22;67539;48.752;12.922;2023-02-27T04:45:31;-0.20;93.40
78289;DHT22;67539;48.752;12.922;2023-02-27T04:48:04;-0.20;93.60
78289;DHT22;67539;48.752;12.922;2023-02-27T04:50:36;-0.20;93.40
78289;DHT22;67539;48.752;12.922;2023-02-27T04:53:10;-0.20;93.20
78289;DHT22;67539;48.752;12.922;2023-02-27T04:55:44;-0.20;93.30
78289;DHT22;67539;48.752;12.922;2023-02-27T04:58:17;-0.10;93.40
78289;DHT22;67539;48.752;12.922;2023-02-27T05:00:57;-0.10;93.50
78289;DHT22;67539;48.752;12.922;2023-02-27T05:03:31;0.00;93.70
78289;DHT22;67539;48.752;12.922;2023-02-27T05:06:01;0.00;93.70
78289;DHT22;67539;48.752;12.922;2023-02-27T05:08:34;0.10;93.60
78289;DHT22;67539;48.752;12.922;2023-02-27T05:11:09;0.10;93.20
78289;DHT22;67539;48.752;12.922;2023-02-27T05:13:42;0.10;92.50
78289;DHT22;67539;48.752;12.922;2023-02-27T05:16:16;0.10;91.80
78289;DHT22;67539;48.752;12.922;2023-02-27T05:18:48;0.10;91.50
78289;DHT22;67539;48.752;12.922;2023-02-27T05:21:22;0.20;91.60
78289;DHT22;67539;48.752;12.922;2023-02-27T05:24:02;0.20;91.50
78289;DHT22;67539;48.752;12.922;2023-02-27T05:26:40;0.20;91.40
78289;DHT22;67539;48.752;12.922;2023-02-27T05:29:19;0.20;91.20
78289;DHT22;67539;48.752;12.922;2023-02-27T05:31:52;0.20;90.70
78289;DHT22;67539;48.752;12.922;2023-02-27T05:34:24;0.20;90.40
78289;DHT22;67539;48.752;12.922;2023-02-27T05:36:58;0.30;90.10
78289;DHT22;67539;48.752;12.922;2023-02-27T05:39:30;0.30;90.10
78289;DHT22;67539;48.752;12.922;2023-02-27T05:42:04;0.30;89.90
78289;DHT22;67539;48.752;12.922;2023-02-27T05:44:34;0.30;88.60
78289;DHT22;67539;48.752;12.922;2023-02-27T05:47:08;0.30;88.90
78289;DHT22;67539;48.752;12.922;2023-02-27T05:49:41;0.30;87.50
78289;DHT22;67539;48.752;12.922;2023-02-27T05:52:13;0.30;86.50
78289;DHT22;67539;48.752;12.922;2023-02-27T05:54:47;0.30;85.90
78289;DHT22;67539;48.752;12.922;2023-02-27T05:57:20;0.30;85.60
78289;DHT22;67539;48.752;12.922;2023-02-27T05:59:55;0.30;86.00
78289;DHT22;67539;48.752;12.922;2023-02-27T06:02:26;0.30;85.10
78289;DHT22;67539;48.752;12.922;2023-02-27T06:04:55;0.30;84.40
78289;DHT22;67539;48.752;12.922;2023-02-27T06:07:24;0.30;84.10
78289;DHT22;67539;48.752;12.922;2023-02-27T06:09:52;0.30;84.70
78289;DHT22;67539;48.752;12.922;2023-02-27T06:12:20;0.40;84.90
78289;DHT22;67539;48.752;12.922;2023-02-27T06:14:48;0.30;84.80
78289;DHT22;67539;48.752;12.922;2023-02-27T06:17:17;0.30;83.90
78289;DHT22;67539;48.752;12.922;2023-02-27T06:19:47;0.30;83.60
78289;DHT22;67539;48.752;12.922;2023-02-27T06:22:15;0.30;84.50
78289;DHT22;67539;48.752;12.922;2023-02-27T06:24:44;0.40;84.20
78289;DHT22;67539;48.752;12.922;2023-02-27T06:27:12;0.40;84.00
78289;DHT22;67539;48.752;12.922;2023-02-27T06:29:40;0.40;83.90
78289;DHT22;67539;48.752;12.922;2023-02-27T06:32:08;0.40;83.10
78289;DHT22;67539;48.752;12.922;2023-02-27T06:34:37;0.40;82.10
78289;DHT22;67539;48.752;12.922;2023-02-27T06:37:06;0.40;81.20
78289;DHT22;67539;48.752;12.922;2023-02-27T06:39:35;0.40;82.10
78289;DHT22;67539;48.752;12.922;2023-02-27T06:42:03;0.40;81.60
78289;DHT22;67539;48.752;12.922;2023-02-27T06:44:32;0.40;81.60
78289;DHT22;67539;48.752;12.922;2023-02-27T06:47:00;0.40;79.70
78289;DHT22;67539;48.752;12.922;2023-02-27T06:49:29;0.40;79.80
78289;DHT22;67539;48.752;12.922;2023-02-27T15:09:58;3.50;54.40
78289;DHT22;67539;48.752;12.922;2023-02-27T15:12:30;3.50;55.50
78289;DHT22;67539;48.752;12.922;2023-02-27T15:15:00;3.50;55.20
78289;DHT22;67539;48.752;12.922;2023-02-27T15:17:37;3.50;53.80
78289;DHT22;67539;48.752;12.922;2023-02-27T15:20:22;3.40;53.30
78289;DHT22;67539;48.752;12.922;2023-02-27T15:22:51;3.30;54.30
78289;DHT22;67539;48.752;12.922;2023-02-27T15:25:29;3.20;54.40
78289;DHT22;67539;48.752;12.922;2023-02-27T15:28:00;3.10;54.90
78289;DHT22;67539;48.752;12.922;2023-02-27T15:30:30;3.00;56.40
78289;DHT22;67539;48.752;12.922;2023-02-27T15:32:59;3.00;54.60
78289;DHT22;67539;48.752;12.922;2023-02-27T15:35:34;2.90;55.60
78289;DHT22;67539;48.752;12.922;2023-02-27T15:38:03;2.80;55.00
78289;DHT22;67539;48.752;12.922;2023-02-27T15:40:34;2.70;56.00
78289;DHT22;67539;48.752;12.922;2023-02-27T15:43:03;2.70;55.70
78289;DHT22;67539;48.752;12.922;2023-02-27T15:45:33;2.70;55.70
78289;DHT22;67539;48.752;12.922;2023-02-27T15:48:03;2.70;56.00
78289;DHT22;67539;48.752;12.922;2023-02-27T15:50:35;2.60;55.30
78289;DHT22;67539;48.752;12.922;2023-02-27T15:53:09;2.50;55.30
78289;DHT22;67539;48.752;12.922;2023-02-27T15:55:43;2.40;55.10
78289;DHT22;67539;48.752;12.922;2023-02-27T15:58:19;2.40;55.60
78289;DHT22;67539;48.752;12.922;2023-02-27T16:00:48;2.30;55.90
78289;DHT22;67539;48.752;12.922;2023-02-27T16:03:21;2.20;56.50
78289;DHT22;67539;48.752;12.922;2023-02-27T16:05:51;2.20;56.40
78289;DHT22;67539;48.752;12.922;2023-02-27T16:08:20;2.20;57.50
78289;DHT22;67539;48.752;12.922;2023-02-27T16:10:50;2.20;57.50
78289;DHT22;67539;48.752;12.922;2023-02-27T16:13:20;2.20;57.80
78289;DHT22;67539;48.752;12.922;2023-02-27T16:15:59;2.10;58.20
78289;DHT22;67539;48.752;12.922;2023-02-27T16:18:31;2.10;57.20
78289;DHT22;67539;48.752;12.922;2023-02-27T16:21:09;2.10;57.30
78289;DHT22;67539;48.752;12.922;2023-02-27T16:23:37;2.10;57.40
78289;DHT22;67539;48.752;12.922;2023-02-27T16:29:05;2.10;57.50
78289;DHT22;67539;48.752;12.922;2023-02-27T16:31:46;2.00;57.90
78289;DHT22;67539;48.752;12.922;2023-02-27T16:34:22;1.90;57.50
78289;DHT22;67539;48.752;12.922;2023-02-27T16:37:00;1.80;57.60
78289;DHT22;67539;48.752;12.922;2023-02-27T16:39:29;1.80;57.50
78289;DHT22;67539;48.752;12.922;2023-02-27T16:42:00;1.70;58.00
78289;DHT22;67539;48.752;12.922;2023-02-27T16:44:29;1.70;58.70
78289;DHT22;67539;48.752;12.922;2023-02-27T16:46:57;1.70;58.50
78289;DHT22;67539;48.752;12.922;2023-02-27T16:49:27;1.60;59.20
78289;DHT22;67539;48.752;12.922;2023-02-27T16:51:57;1.60;59.60
78289;DHT22;67539;48.752;12.922;2023-02-27T16:54:26;1.60;60.00
78289;DHT22;67539;48.752;12.922;2023-02-27T16:56:55;1.60;59.90
78289;DHT22;67539;48.752;12.922;2023-02-27T16:59:30;1.50;59.60
78289;DHT22;67539;48.752;12.922;2023-02-27T17:02:00;1.50;60.00
78289;DHT22;67539;48.752;12.922;2023-02-27T17:04:29;1.40;60.50
78289;DHT22;67539;48.752;12.922;2023-02-27T17:06:59;1.40;60.20
78289;DHT22;67539;48.752;12.922;2023-02-27T17:09:29;1.40;60.60
78289;DHT22;67539;48.752;12.922;2023-02-27T17:11:57;1.30;61.00
78289;DHT22;67539;48.752;12.922;2023-02-27T17:14:25;1.30;60.90
78289;DHT22;67539;48.752;12.922;2023-02-27T17:16:54;1.30;60.50
78289;DHT22;67539;48.752;12.922;2023-02-27T17:19:25;1.30;60.90
78289;DHT22;67539;48.752;12.922;2023-02-27T17:21:53;1.30;61.60
78289;DHT22;67539;48.752;12.922;2023-02-27T17:24:21;1.30;61.50
78289;DHT22;67539;48.752;12.922;2023-02-27T17:26:49;1.30;61.50
78289;DHT22;67539;48.752;12.922;2023-02-27T17:29:18;1.20;61.70
78289;DHT22;67539;48.752;12.922;2023-02-27T17:31:46;1.20;61.60
78289;DHT22;67539;48.752;12.922;2023-02-27T17:34:16;1.30;61.90
78289;DHT22;67539;48.752;12.922;2023-02-27T17:36:44;1.20;61.90
78289;DHT22;67539;48.752;12.922;2023-02-27T17:39:12;1.20;62.20
78289;DHT22;67539;48.752;12.922;2023-02-27T17:41:42;1.20;62.40
78289;DHT22;67539;48.752;12.922;2023-02-27T17:44:10;1.20;62.30
78289;DHT22;67539;48.752;12.922;2023-02-27T17:46:40;1.20;62.80
78289;DHT22;67539;48.752;12.922;2023-02-27T17:49:08;1.20;63.40
78289;DHT22;67539;48.752;12.922;2023-02-27T17:51:37;1.20;63.20
78289;DHT22;67539;48.752;12.922;2023-02-27T17:54:05;1.10;63.40
78289;DHT22;67539;48.752;12.922;2023-02-27T17:56:34;1.10;62.80
78289;DHT22;67539;48.752;12.922;2023-02-27T17:59:03;1.10;62.90
78289;DHT22;67539;48.752;12.922;2023-02-27T18:01:32;1.10;63.20
78289;DHT22;67539;48.752;12.922;2023-02-27T18:04:00;1.10;63.60
78289;DHT22;67539;48.752;12.922;2023-02-27T18:06:28;1.10;63.50
78289;DHT22;67539;48.752;12.922;2023-02-27T18:08:59;1.10;64.20
78289;DHT22;67539;48.752;12.922;2023-02-27T18:11:27;1.10;64.50
78289;DHT22;67539;48.752;12.922;2023-02-27T18:13:55;1.10;64.30
78289;DHT22;67539;48.752;12.922;2023-02-27T18:16:23;1.10;64.50
78289;DHT22;67539;48.752;12.922;2023-02-27T18:18:51;1.10;64.90
78289;DHT22;67539;48.752;12.922;2023-02-27T18:21:20;1.10;65.50
78289;DHT22;67539;48.752;12.922;2023-02-27T18:23:51;1.10;64.90
78289;DHT22;67539;48.752;12.922;2023-02-27T18:26:22;1.10;65.10
78289;DHT22;67539;48.752;12.922;2023-02-27T18:29:00;1.10;64.60
78289;DHT22;67539;48.752;12.922;2023-02-27T18:31:31;1.10;64.80
78289;DHT22;67539;48.752;12.922;2023-02-27T18:33:59;1.10;64.90
78289;DHT22;67539;48.752;12.922;2023-02-27T18:36:28;1.00;65.50
78289;DHT22;67539;48.752;12.922;2023-02-27T18:38:58;1.00;65.60
78289;DHT22;67539;48.752;12.922;2023-02-27T18:41:28;1.10;65.60
78289;DHT22;67539;48.752;12.922;2023-02-27T18:43:56;1.00;66.10
78289;DHT22;67539;48.752;12.922;2023-02-27T18:46:25;1.00;66.50
78289;DHT22;67539;48.752;12.922;2023-02-27T18:48:54;1.00;66.30
78289;DHT22;67539;48.752;12.922;2023-02-27T18:51:22;1.00;66.70
78289;DHT22;67539;48.752;12.922;2023-02-27T18:53:50;0.90;66.60
78289;DHT22;67539;48.752;12.922;2023-02-27T18:56:20;0.90;66.60
78289;DHT22;67539;48.752;12.922;2023-02-27T18:58:51;0.90;66.90
78289;DHT22;67539;48.752;12.922;2023-02-27T19:01:21;0.90;66.70
78289;DHT22;67539;48.752;12.922;2023-02-27T19:03:51;0.90;65.70
78289;DHT22;67539;48.752;12.922;2023-02-27T19:06:22;0.90;66.30
78289;DHT22;67539;48.752;12.922;2023-02-27T19:08:50;0.90;66.50
78289;DHT22;67539;48.752;12.922;2023-02-27T19:11:22;0.90;65.90
78289;DHT22;67539;48.752;12.922;2023-02-27T19:13:52;0.80;66.60
78289;DHT22;67539;48.752;12.922;2023-02-27T19:16:20;0.80;67.00
78289;DHT22;67539;48.752;12.922;2023-02-27T19:18:49;0.80;67.20
78289;DHT22;67539;48.752;12.922;2023-02-27T19:21:17;0.80;67.50
78289;DHT22;67539;48.752;12.922;2023-02-27T19:23:45;0.80;67.50
78289;DHT22;67539;48.752;12.922;2023-02-27T19:26:14;0.70;67.40
78289;DHT22;67539;48.752;12.922;2023-02-27T19:28:42;0.80;67.60
78289;DHT22;67539;48.752;12.922;2023-02-27T19:31:12;0.70;67.50
78289;DHT22;67539;48.752;12.922;2023-02-27T19:33:41;0.70;67.70
78289;DHT22;67539;48.752;12.922;2023-02-27T19:36:11;0.70;67.20
78289;DHT22;67539;48.752;12.922;2023-02-27T19:38:39;0.70;66.80
78289;DHT22;67539;48.752;12.922;2023-02-27T19:41:09;0.70;66.50
78289;DHT22;67539;48.752;12.922;2023-02-27T19:43:39;0.70;66.40
78289;DHT22;67539;48.752;12.922;2023-02-27T19:46:09;0.70;66.40
78289;DHT22;67539;48.752;12.922;2023-02-27T19:48:39;0.60;66.70
78289;DHT22;67539;48.752;12.922;2023-02-27T19:51:09;0.60;66.70
78289;DHT22;67539;48.752;12.922;2023-02-27T19:53:39;0.60;66.60
78289;DHT22;67539;48.752;12.922;2023-02-27T19:56:12;0.60;66.90
78289;DHT22;67539;48.752;12.922;2023-02-27T19:58:40;0.50;66.80
78289;DHT22;67539;48.752;12.922;2023-02-27T20:01:09;0.50;67.30
78289;DHT22;67539;48.752;12.922;2023-02-27T20:03:39;0.50;67.00
78289;DHT22;67539;48.752;12.922;2023-02-27T20:06:14;0.40;67.00
78289;DHT22;67539;48.752;12.922;2023-02-27T20:08:43;0.40;66.60
78289;DHT22;67539;48.752;12.922;2023-02-27T20:11:12;0.30;66.80
78289;DHT22;67539;48.752;12.922;2023-02-27T20:13:43;0.30;66.80
78289;DHT22;67539;48.752;12.922;2023-02-27T20:16:13;0.20;67.20
78289;DHT22;67539;48.752;12.922;2023-02-27T20:18:43;0.20;67.20
78289;DHT22;67539;48.752;12.922;2023-02-27T20:21:14;0.20;67.60
78289;DHT22;67539;48.752;12.922;2023-02-27T20:23:43;0.20;67.30
78289;DHT22;67539;48.752;12.922;2023-02-27T20:26:15;0.10;67.50
78289;DHT22;67539;48.752;12.922;2023-02-27T20:28:44;0.10;67.80
78289;DHT22;67539;48.752;12.922;2023-02-27T20:31:15;0.10;67.90
78289;DHT22;67539;48.752;12.922;2023-02-27T20:33:46;0.00;67.80
78289;DHT22;67539;48.752;12.922;2023-02-27T20:36:15;0.00;67.50
78289;DHT22;67539;48.752;12.922;2023-02-27T20:38:44;0.00;67.80
78289;DHT22;67539;48.752;12.922;2023-02-27T20:41:14;0.00;67.80
78289;DHT22;67539;48.752;12.922;2023-02-27T20:43:42;0.00;67.90
78289;DHT22;67539;48.752;12.922;2023-02-27T20:46:13;0.00;68.00
78289;DHT22;67539;48.752;12.922;2023-02-27T20:48:42;0.00;68.00
78289;DHT22;67539;48.752;12.922;2023-02-27T20:51:13;0.00;69.20
78289;DHT22;67539;48.752;12.922;2023-02-27T20:53:46;0.00;69.10
78289;DHT22;67539;48.752;12.922;2023-02-27T20:56:17;-0.10;69.80
78289;DHT22;67539;48.752;12.922;2023-02-27T20:58:46;-0.10;69.80
78289;DHT22;67539;48.752;12.922;2023-02-27T21:01:16;-0.10;70.00
78289;DHT22;67539;48.752;12.922;2023-02-27T21:03:45;-0.10;69.90
78289;DHT22;67539;48.752;12.922;2023-02-27T21:06:18;-0.10;69.40
78289;DHT22;67539;48.752;12.922;2023-02-27T21:08:48;-0.10;69.80
78289;DHT22;67539;48.752;12.922;2023-02-27T21:11:18;-0.10;69.60
78289;DHT22;67539;48.752;12.922;2023-02-27T21:13:47;-0.20;69.80
78289;DHT22;67539;48.752;12.922;2023-02-27T21:16:17;-0.20;69.80
78289;DHT22;67539;48.752;12.922;2023-02-27T21:18:46;-0.20;69.30
78289;DHT22;67539;48.752;12.922;2023-02-27T21:21:21;-0.20;69.50
78289;DHT22;67539;48.752;12.922;2023-02-27T21:23:50;-0.20;69.90
78289;DHT22;67539;48.752;12.922;2023-02-27T21:26:20;-0.30;70.30
78289;DHT22;67539;48.752;12.922;2023-02-27T21:28:50;-0.30;70.50
78289;DHT22;67539;48.752;12.922;2023-02-27T21:31:20;-0.30;70.10
78289;DHT22;67539;48.752;12.922;2023-02-27T21:33:50;-0.30;69.90
78289;DHT22;67539;48.752;12.922;2023-02-27T21:36:25;-0.30;70.30
78289;DHT22;67539;48.752;12.922;2023-02-27T21:38:56;-0.30;70.60
78289;DHT22;67539;48.752;12.922;2023-02-27T21:41:25;-0.40;70.80
78289;DHT22;67539;48.752;12.922;2023-02-27T21:43:56;-0.40;70.60
78289;DHT22;67539;48.752;12.922;2023-02-27T21:46:25;-0.40;70.40
78289;DHT22;67539;48.752;12.922;2023-02-27T21:48:54;-0.40;70.10
78289;DHT22;67539;48.752;12.922;2023-02-27T21:51:24;-0.40;70.60
78289;DHT22;67539;48.752;12.922;2023-02-27T21:54:08;-0.50;70.60
78289;DHT22;67539;48.752;12.922;2023-02-27T21:56:38;-0.50;70.30
78289;DHT22;67539;48.752;12.922;2023-02-27T21:59:06;-0.60;70.10
78289;DHT22;67539;48.752;12.922;2023-02-27T22:01:35;-0.60;70.30
78289;DHT22;67539;48.752;12.922;2023-02-27T22:04:05;-0.60;70.50
78289;DHT22;67539;48.752;12.922;2023-02-27T22:06:34;-0.60;70.50
78289;DHT22;67539;48.752;12.922;2023-02-27T22:09:04;-0.70;70.90
78289;DHT22;67539;48.752;12.922;2023-02-27T22:11:34;-0.70;71.30
78289;DHT22;67539;48.752;12.922;2023-02-27T22:14:04;-0.70;71.70
78289;DHT22;67539;48.752;12.922;2023-02-27T22:16:33;-0.70;71.90
78289;DHT22;67539;48.752;12.922;2023-02-27T22:19:04;-0.70;71.50
78289;DHT22;67539;48.752;12.922;2023-02-27T22:21:36;-0.70;71.60
78289;DHT22;67539;48.752;12.922;2023-02-27T22:24:05;-0.80;71.80
78289;DHT22;67539;48.752;12.922;2023-02-27T22:26:34;-0.80;71.70
78289;DHT22;67539;48.752;12.922;2023-02-27T22:29:03;-0.80;71.90
78289;DHT22;67539;48.752;12.922;2023-02-27T22:31:34;-0.90;72.10
78289;DHT22;67539;48.752;12.922;2023-02-27T22:34:05;-0.90;72.50
78289;DHT22;67539;48.752;12.922;2023-02-27T22:36:35;-0.90;72.40
78289;DHT22;67539;48.752;12.922;2023-02-27T22:39:04;-0.90;72.80
78289;DHT22;67539;48.752;12.922;2023-02-27T22:41:35;-0.90;72.80
78289;DHT22;67539;48.752;12.922;2023-02-27T22:44:04;-0.90;72.50
78289;DHT22;67539;48.752;12.922;2023-02-27T22:46:35;-1.00;73.10
78289;DHT22;67539;48.752;12.922;2023-02-27T22:49:06;-1.00;73.30
78289;DHT22;67539;48.752;12.922;2023-02-27T22:51:36;-1.00;73.50
78289;DHT22;67539;48.752;12.922;2023-02-27T22:54:06;-1.00;73.80
78289;DHT22;67539;48.752;12.922;2023-02-27T22:56:36;-1.10;74.20
78289;DHT22;67539;48.752;12.922;2023-02-27T22:59:06;-1.10;74.10
78289;DHT22;67539;48.752;12.922;2023-02-27T23:01:35;-1.10;74.30
78289;DHT22;67539;48.752;12.922;2023-02-27T23:04:06;-1.10;74.40
78289;DHT22;67539;48.752;12.922;2023-02-27T23:06:37;-1.10;74.50
78289;DHT22;67539;48.752;12.922;2023-02-27T23:09:07;-1.10;74.60
78289;DHT22;67539;48.752;12.922;2023-02-27T23:11:37;-1.10;74.70
78289;DHT22;67539;48.752;12.922;2023-02-27T23:14:06;-1.20;74.60
78289;DHT22;67539;48.752;12.922;2023-02-27T23:16:34;-1.20;74.60
78289;DHT22;67539;48.752;12.922;2023-02-27T23:19:03;-1.20;75.30
78289;DHT22;67539;48.752;12.922;2023-02-27T23:21:33;-1.20;74.90
78289;DHT22;67539;48.752;12.922;2023-02-27T23:24:04;-1.20;75.10
78289;DHT22;67539;48.752;12.922;2023-02-27T23:26:34;-1.20;75.10
78289;DHT22;67539;48.752;12.922;2023-02-27T23:29:04;-1.20;75.30
78289;DHT22;67539;48.752;12.922;2023-02-27T23:31:33;-1.20;75.30
78289;DHT22;67539;48.752;12.922;2023-02-27T23:34:03;-1.20;75.40
78289;DHT22;67539;48.752;12.922;2023-02-27T23:36:32;-1.20;75.20
78289;DHT22;67539;48.752;12.922;2023-02-27T23:39:04;-1.20;74.70
78289;DHT22;67539;48.752;12.922;2023-02-27T23:41:35;-1.20;74.90
78289;DHT22;67539;48.752;12.922;2023-02-27T23:44:04;-1.20;74.90
78289;DHT22;67539;48.752;12.922;2023-02-27T23:46:50;-1.20;75.20
78289;DHT22;67539;48.752;12.922;2023-02-27T23:49:18;-1.20;75.10
78289;DHT22;67539;48.752;12.922;2023-02-27T23:51:47;-1.20;75.10
78289;DHT22;67539;48.752;12.922;2023-02-27T23:54:16;-1.20;75.10
78289;DHT22;67539;48.752;12.922;2023-02-27T23:56:45;-1.20;75.30
78289;DHT22;67539;48.752;12.922;2023-02-27T23:59:14;-1.20;75.60
